createdAt,value
2017-05-28T00:09:38.008Z,1010.4
2017-05-28T00:19:52.453Z,1010.4
2017-05-28T00:30:06.718Z,1010.4
2017-05-28T00:40:20.780Z,1010.5
2017-05-28T00:50:34.574Z,1010.4
2017-05-28T01:00:50.034Z,1010.4
2017-05-28T01:11:04.702Z,1010.4
2017-05-28T01:21:19.523Z,1010.2
2017-05-28T01:31:34.829Z,1010.3
2017-05-28T01:41:49.199Z,1010.2
2017-05-28T01:52:04.362Z,1010.3
2017-05-28T02:02:19.399Z,1010.1
2017-05-28T02:12:34.794Z,1010.1
2017-05-28T02:22:49.668Z,1010.1
2017-05-28T02:33:04.460Z,1010.1
2017-05-28T02:43:18.812Z,1010.2
2017-05-28T02:53:33.525Z,1010.3
2017-05-28T03:03:47.692Z,1010.3
2017-05-28T03:14:01.591Z,1010.5
2017-05-28T03:24:15.599Z,1010.6
2017-05-28T03:34:29.506Z,1010.6
2017-05-28T03:44:45.060Z,1010.8
2017-05-28T03:55:00.616Z,1011.1
2017-05-28T04:05:15.815Z,1011.5
2017-05-28T04:15:29.680Z,1011.6
2017-05-28T04:25:44.021Z,1011.6
2017-05-28T04:35:57.876Z,1011.8
2017-05-28T04:46:12.765Z,1011.5
2017-05-28T04:56:27.898Z,1011.4
2017-05-28T05:06:43.438Z,1011.3
2017-05-28T05:16:58.321Z,1011.2
2017-05-28T05:27:13.530Z,1011.2
2017-05-28T05:37:28.708Z,1011.5
2017-05-28T05:47:44.048Z,1011.3
2017-05-28T05:57:58.934Z,1011.3
2017-05-28T06:08:13.099Z,1012
2017-05-28T06:18:27.953Z,1012.3
2017-05-28T06:28:42.340Z,1012.2
2017-05-28T06:38:56.167Z,1011.8
2017-05-28T06:49:11.185Z,1011.4
2017-05-28T06:59:26.349Z,1011.5
2017-05-28T07:09:41.369Z,1011.8
2017-05-28T07:19:55.687Z,1012.3
2017-05-28T07:30:11.324Z,1012.4
2017-05-28T07:40:27.101Z,1012.3
2017-05-28T07:50:41.259Z,1012.1
2017-05-28T08:00:56.411Z,1012.2
2017-05-28T08:11:11.542Z,1011.8
2017-05-28T08:21:25.613Z,1012.1
2017-05-28T08:31:39.704Z,1012.2
2017-05-28T08:41:54.940Z,1012.3
2017-05-28T08:52:10.781Z,1012.6
2017-05-28T09:02:24.963Z,1012.9
2017-05-28T09:12:40.688Z,1012.8
2017-05-28T09:22:55.247Z,1012.8
2017-05-28T09:33:10.255Z,1013.2
2017-05-28T09:43:25.175Z,1013.3
2017-05-28T09:53:40.460Z,1013.4
2017-05-28T10:03:55.459Z,1013.5
2017-05-28T10:14:11.296Z,1013.6
2017-05-28T10:24:25.458Z,1013.2
2017-05-28T10:34:40.109Z,1013.1
2017-05-28T10:44:55.198Z,1012.7
2017-05-28T10:55:09.846Z,1012.5
2017-05-28T11:05:25.040Z,1012.8
2017-05-28T11:15:40.534Z,1012.6
2017-05-28T11:25:56.360Z,1011.9
2017-05-28T11:36:11.159Z,1012.6
2017-05-28T11:46:25.632Z,1012.6
2017-05-28T11:56:41.174Z,1011.9
2017-05-28T12:06:55.184Z,1012
2017-05-28T12:17:09.761Z,1012.1
2017-05-28T12:27:24.402Z,1012.5
2017-05-28T12:37:39.377Z,1012.5
2017-05-28T12:47:54.415Z,1012.3
2017-05-28T12:58:10.241Z,1012.7
2017-05-28T13:08:25.074Z,1012.4
2017-05-28T13:18:39.238Z,1012.5
2017-05-28T13:28:53.330Z,1012.4
2017-05-28T13:39:08.823Z,1012.4
2017-05-28T13:49:24.370Z,1012.1
2017-05-28T13:59:39.231Z,1012.1
2017-05-28T14:09:53.396Z,1011.4
2017-05-28T14:20:08.344Z,1011.2
2017-05-28T14:30:22.722Z,1011.3
2017-05-28T14:40:37.532Z,1011
2017-05-28T14:50:51.821Z,1011
2017-05-28T15:01:06.300Z,1010.9
2017-05-28T15:11:20.297Z,1011
2017-05-28T15:21:34.353Z,1010.9
2017-05-28T15:31:50.122Z,1010.7
2017-05-28T15:42:04.569Z,1010.6
2017-05-28T15:52:19.033Z,1010.6
2017-05-28T16:02:34.887Z,1010.5
2017-05-28T16:12:49.155Z,1010.5
2017-05-28T16:23:03.984Z,1010.5
2017-05-28T16:33:18.029Z,1010.5
2017-05-28T16:43:33.381Z,1010.1
2017-05-28T16:53:48.339Z,1010
2017-05-28T17:04:03.772Z,1010
2017-05-28T17:14:17.945Z,1010
2017-05-28T17:24:32.276Z,1009.9
2017-05-28T17:34:47.317Z,1009.8
2017-05-28T17:45:02.244Z,1009.9
2017-05-28T17:55:16.328Z,1009.9
2017-05-28T18:05:32.053Z,1009.8
2017-05-28T18:15:47.540Z,1009.7
2017-05-28T18:26:01.650Z,1009.6
2017-05-28T18:36:16.596Z,1009.8
2017-05-28T18:46:31.285Z,1009.8
2017-05-28T18:56:45.344Z,1009.7
2017-05-28T19:06:59.706Z,1009.7
2017-05-28T19:17:14.557Z,1009.7
2017-05-28T19:27:30.316Z,1009.7
2017-05-28T19:37:44.944Z,1009.7
2017-05-28T19:47:59.598Z,1009.7
2017-05-28T19:58:13.442Z,1009.8
2017-05-28T20:08:27.698Z,1009.8
2017-05-28T20:18:42.298Z,1009.7
2017-05-28T20:28:57.611Z,1009.7
2017-05-28T20:39:11.615Z,1009.8
2017-05-28T20:49:27.193Z,1009.9
2017-05-28T20:59:41.577Z,1010
2017-05-28T21:09:55.437Z,1009.8
2017-05-28T21:20:11.112Z,1009.7
2017-05-28T21:30:24.929Z,1009.8
2017-05-28T21:40:39.143Z,1009.8
2017-05-28T21:50:53.215Z,1009.7
2017-05-28T22:01:08.894Z,1009.6
2017-05-28T22:11:23.351Z,1009.5
2017-05-28T22:21:37.166Z,1009.5
2017-05-28T22:31:51.263Z,1009.3
2017-05-28T22:42:06.251Z,1009.2
2017-05-28T22:52:21.327Z,1009
2017-05-28T23:02:36.931Z,1008.9
2017-05-28T23:12:52.296Z,1008.8
2017-05-28T23:23:06.206Z,1008.8
2017-05-28T23:33:21.019Z,1008.7
2017-05-28T23:43:34.970Z,1008.7
2017-05-28T23:53:49.041Z,1008.7
